sensor_id;sensor_type;location;lat;lon;timestamp;pressure;altitude;pressure_sealevel;temperature;humidity
74218;BME280;62579;47.288;18.646;2023-02-15T00:43:07;101651.94;;;-0.33;90.41
74218;BME280;62579;47.288;18.646;2023-02-15T00:45:32;101645.81;;;-0.34;90.47
74218;BME280;62579;47.288;18.646;2023-02-15T00:47:57;101648.16;;;-0.25;89.94
74218;BME280;62579;47.288;18.646;2023-02-15T00:50:23;101638.97;;;-0.28;89.60
74218;BME280;62579;47.288;18.646;2023-02-15T00:52:48;101647.00;;;-0.24;89.43
74218;BME280;62579;47.288;18.646;2023-02-15T00:55:13;101639.38;;;-0.22;89.37
74218;BME280;62579;47.288;18.646;2023-02-15T00:57:39;101640.91;;;-0.25;89.51
74218;BME280;62579;47.288;18.646;2023-02-15T01:00:05;101641.28;;;-0.23;89.70
74218;BME280;62579;47.288;18.646;2023-02-15T01:02:30;101642.81;;;-0.18;89.79
74218;BME280;62579;47.288;18.646;2023-02-15T01:04:56;101648.16;;;-0.18;89.56
74218;BME280;62579;47.288;18.646;2023-02-15T01:07:21;101644.69;;;-0.29;89.09
74218;BME280;62579;47.288;18.646;2023-02-15T01:09:46;101637.06;;;-0.27;88.82
74218;BME280;62579;47.288;18.646;2023-02-15T01:12:12;101632.12;;;-0.22;88.43
74218;BME280;62579;47.288;18.646;2023-02-15T01:14:37;101642.03;;;-0.22;88.26
74218;BME280;62579;47.288;18.646;2023-02-15T01:17:02;101642.03;;;-0.19;87.97
74218;BME280;62579;47.288;18.646;2023-02-15T01:19:28;101638.59;;;-0.16;87.71
74218;BME280;62579;47.288;18.646;2023-02-15T01:21:53;101632.91;;;-0.14;87.48
74218;BME280;62579;47.288;18.646;2023-02-15T01:24:19;101635.12;;;-0.27;87.39
74218;BME280;62579;47.288;18.646;2023-02-15T01:26:44;101628.28;;;-0.17;87.08
74218;BME280;62579;47.288;18.646;2023-02-15T01:29:09;101628.66;;;-0.33;87.17
74218;BME280;62579;47.288;18.646;2023-02-15T01:31:35;101632.44;;;-0.34;87.42
74218;BME280;62579;47.288;18.646;2023-02-15T01:34:00;101619.06;;;-0.37;87.56
74218;BME280;62579;47.288;18.646;2023-02-15T01:36:25;101629.34;;;-0.43;87.97
74218;BME280;62579;47.288;18.646;2023-02-15T01:38:51;101619.06;;;-0.41;87.50
74218;BME280;62579;47.288;18.646;2023-02-15T01:41:16;101622.50;;;-0.44;87.49
74218;BME280;62579;47.288;18.646;2023-02-15T01:43:59;101619.44;;;-0.42;87.18
74218;BME280;62579;47.288;18.646;2023-02-15T01:46:36;101611.03;;;-0.37;86.83
74218;BME280;62579;47.288;18.646;2023-02-15T01:49:10;101614.09;;;-0.46;87.07
74218;BME280;62579;47.288;18.646;2023-02-15T01:51:37;101614.06;;;-0.53;87.71
74218;BME280;62579;47.288;18.646;2023-02-15T01:54:15;101613.28;;;-0.53;87.47
74218;BME280;62579;47.288;18.646;2023-02-15T01:56:44;101605.28;;;-0.50;87.33
74218;BME280;62579;47.288;18.646;2023-02-15T01:59:16;101599.16;;;-0.54;87.45
74218;BME280;62579;47.288;18.646;2023-02-15T02:01:43;101600.31;;;-0.51;86.99
74218;BME280;62579;47.288;18.646;2023-02-15T02:04:24;101596.88;;;-0.52;87.10
74218;BME280;62579;47.288;18.646;2023-02-15T02:06:56;101607.19;;;-0.50;86.67
74218;BME280;62579;47.288;18.646;2023-02-15T02:09:22;101604.13;;;-0.59;86.88
74218;BME280;62579;47.288;18.646;2023-02-15T02:11:48;101598.31;;;-0.72;87.78
74218;BME280;62579;47.288;18.646;2023-02-15T02:14:14;101604.06;;;-0.74;88.14
74218;BME280;62579;47.288;18.646;2023-02-15T02:16:51;101602.50;;;-0.78;89.60
74218;BME280;62579;47.288;18.646;2023-02-15T02:27:34;101589.13;;;-0.82;88.95
74218;BME280;62579;47.288;18.646;2023-02-15T02:38:06;101600.28;;;-0.62;87.56
74218;BME280;62579;47.288;18.646;2023-02-15T02:40:59;101601.00;;;-0.72;87.90
74218;BME280;62579;47.288;18.646;2023-02-15T02:43:35;101600.25;;;-0.66;87.76
74218;BME280;62579;47.288;18.646;2023-02-15T02:46:13;101605.19;;;-0.78;87.99
74218;BME280;62579;47.288;18.646;2023-02-15T02:48:40;101592.53;;;-0.88;88.53
74218;BME280;62579;47.288;18.646;2023-02-15T02:51:06;101605.53;;;-0.87;88.49
74218;BME280;62579;47.288;18.646;2023-02-15T02:53:32;101604.78;;;-0.84;88.42
74218;BME280;62579;47.288;18.646;2023-02-15T02:56:05;101605.53;;;-0.80;88.12
74218;BME280;62579;47.288;18.646;2023-02-15T02:59:18;101604.81;;;-0.77;87.83
74218;BME280;62579;47.288;18.646;2023-02-15T03:01:46;101600.94;;;-0.83;87.86
74218;BME280;62579;47.288;18.646;2023-02-15T03:04:20;101601.69;;;-0.86;87.98
74218;BME280;62579;47.288;18.646;2023-02-15T03:06:54;101601.00;;;-0.72;87.79
74218;BME280;62579;47.288;18.646;2023-02-15T03:09:28;101606.37;;;-0.69;88.28
74218;BME280;62579;47.288;18.646;2023-02-15T03:12:28;101599.44;;;-0.84;89.56
74218;BME280;62579;47.288;18.646;2023-02-15T03:15:05;101605.12;;;-0.92;90.57
74218;BME280;62579;47.288;18.646;2023-02-15T03:17:34;101605.47;;;-0.94;90.81
74218;BME280;62579;47.288;18.646;2023-02-15T03:20:26;101607.34;;;-1.01;91.52
74218;BME280;62579;47.288;18.646;2023-02-15T03:23:17;101611.50;;;-1.07;91.73
74218;BME280;62579;47.288;18.646;2023-02-15T03:25:47;101611.94;;;-1.05;91.53
74218;BME280;62579;47.288;18.646;2023-02-15T03:28:19;101614.25;;;-1.00;91.63
74218;BME280;62579;47.288;18.646;2023-02-15T03:30:49;101616.13;;;-1.04;91.37
74218;BME280;62579;47.288;18.646;2023-02-15T03:33:17;101612.34;;;-1.00;90.60
74218;BME280;62579;47.288;18.646;2023-02-15T03:38:18;101605.09;;;-0.96;90.04
74218;BME280;62579;47.288;18.646;2023-02-15T03:40:47;101606.22;;;-1.00;89.82
74218;BME280;62579;47.288;18.646;2023-02-15T03:44:02;101614.19;;;-1.07;89.75
74218;BME280;62579;47.288;18.646;2023-02-15T03:49:19;101609.56;;;-1.21;90.46
74218;BME280;62579;47.288;18.646;2023-02-15T03:51:48;101604.94;;;-1.24;89.99
74218;BME280;62579;47.288;18.646;2023-02-15T03:54:25;101607.22;;;-1.26;89.73
74218;BME280;62579;47.288;18.646;2023-02-15T04:00:04;101607.97;;;-1.29;89.83
74218;BME280;62579;47.288;18.646;2023-02-15T04:03:20;101609.09;;;-1.30;89.20
74218;BME280;62579;47.288;18.646;2023-02-15T04:05:48;101608.31;;;-1.38;89.21
74218;BME280;62579;47.288;18.646;2023-02-15T04:08:13;101617.81;;;-1.37;89.23
74218;BME280;62579;47.288;18.646;2023-02-15T04:10:39;101619.72;;;-1.41;89.14
74218;BME280;62579;47.288;18.646;2023-02-15T04:13:21;101615.88;;;-1.43;89.63
74218;BME280;62579;47.288;18.646;2023-02-15T04:15:47;101618.16;;;-1.45;89.87
74218;BME280;62579;47.288;18.646;2023-02-15T04:18:39;101619.66;;;-1.48;90.26
74218;BME280;62579;47.288;18.646;2023-02-15T04:21:25;101622.28;;;-1.55;90.56
74218;BME280;62579;47.288;18.646;2023-02-15T04:24:10;101620.78;;;-1.52;90.46
74218;BME280;62579;47.288;18.646;2023-02-15T04:26:55;101623.41;;;-1.56;90.46
74218;BME280;62579;47.288;18.646;2023-02-15T04:29:22;101612.66;;;-1.66;90.55
74218;BME280;62579;47.288;18.646;2023-02-15T04:31:48;101615.31;;;-1.66;91.00
74218;BME280;62579;47.288;18.646;2023-02-15T04:34:14;101618.78;;;-1.62;90.45
74218;BME280;62579;47.288;18.646;2023-02-15T04:36:40;101604.28;;;-1.65;89.82
74218;BME280;62579;47.288;18.646;2023-02-15T04:39:06;101616.13;;;-1.62;89.70
74218;BME280;62579;47.288;18.646;2023-02-15T04:41:32;101617.31;;;-1.56;89.27
74218;BME280;62579;47.288;18.646;2023-02-15T04:43:59;101620.03;;;-1.49;88.94
74218;BME280;62579;47.288;18.646;2023-02-15T04:46:26;101626.16;;;-1.49;88.60
74218;BME280;62579;47.288;18.646;2023-02-15T04:48:52;101617.69;;;-1.58;88.52
74218;BME280;62579;47.288;18.646;2023-02-15T04:51:17;101610.91;;;-1.48;88.30
74218;BME280;62579;47.288;18.646;2023-02-15T04:53:43;101619.28;;;-1.46;87.90
74218;BME280;62579;47.288;18.646;2023-02-15T04:56:08;101615.09;;;-1.47;87.61
74218;BME280;62579;47.288;18.646;2023-02-15T04:58:34;101608.97;;;-1.48;87.71
74218;BME280;62579;47.288;18.646;2023-02-15T05:01:00;101603.25;;;-1.53;88.85
74218;BME280;62579;47.288;18.646;2023-02-15T05:03:26;101600.47;;;-1.67;89.54
74218;BME280;62579;47.288;18.646;2023-02-15T05:05:52;101610.75;;;-1.69;89.47
74218;BME280;62579;47.288;18.646;2023-02-15T05:08:17;101606.97;;;-1.65;88.95
74218;BME280;62579;47.288;18.646;2023-02-15T05:10:42;101603.47;;;-1.69;88.25
74218;BME280;62579;47.288;18.646;2023-02-15T05:13:08;101609.91;;;-1.77;88.14
74218;BME280;62579;47.288;18.646;2023-02-15T05:15:33;101616.00;;;-1.76;88.11
74218;BME280;62579;47.288;18.646;2023-02-15T05:17:59;101619.78;;;-1.81;88.10
74218;BME280;62579;47.288;18.646;2023-02-15T05:20:24;101620.19;;;-1.79;88.12
74218;BME280;62579;47.288;18.646;2023-02-15T05:22:53;101616.22;;;-1.96;88.88
74218;BME280;62579;47.288;18.646;2023-02-15T05:25:20;101631.44;;;-1.96;89.37
74218;BME280;62579;47.288;18.646;2023-02-15T05:28:04;101625.84;;;-1.84;90.53
74218;BME280;62579;47.288;18.646;2023-02-15T05:30:50;101632.41;;;-1.78;91.46
74218;BME280;62579;47.288;18.646;2023-02-15T05:33:17;101632.31;;;-1.85;90.97
74218;BME280;62579;47.288;18.646;2023-02-15T05:35:43;101626.25;;;-1.86;91.06
74218;BME280;62579;47.288;18.646;2023-02-15T05:38:08;101639.16;;;-1.88;90.59
74218;BME280;62579;47.288;18.646;2023-02-15T05:40:34;101639.09;;;-1.95;90.32
74218;BME280;62579;47.288;18.646;2023-02-15T05:42:59;101632.22;;;-1.99;90.17
74218;BME280;62579;47.288;18.646;2023-02-15T05:45:25;101645.12;;;-2.01;90.44
74218;BME280;62579;47.288;18.646;2023-02-15T05:47:50;101647.44;;;-2.00;90.00
74218;BME280;62579;47.288;18.646;2023-02-15T05:50:16;101648.56;;;-2.01;89.87
74218;BME280;62579;47.288;18.646;2023-02-15T05:52:41;101656.50;;;-2.08;90.06
74218;BME280;62579;47.288;18.646;2023-02-15T05:55:07;101656.84;;;-2.13;90.50
74218;BME280;62579;47.288;18.646;2023-02-15T05:57:34;101657.56;;;-2.16;90.38
74218;BME280;62579;47.288;18.646;2023-02-15T05:59:59;101655.72;;;-2.08;90.16
74218;BME280;62579;47.288;18.646;2023-02-15T06:02:25;101667.84;;;-2.14;90.42
74218;BME280;62579;47.288;18.646;2023-02-15T06:04:50;101665.91;;;-2.17;90.44
74218;BME280;62579;47.288;18.646;2023-02-15T06:07:16;101662.47;;;-2.21;90.03
74218;BME280;62579;47.288;18.646;2023-02-15T06:09:41;101662.06;;;-2.23;90.07
74218;BME280;62579;47.288;18.646;2023-02-15T06:12:06;101656.31;;;-2.25;90.16
74218;BME280;62579;47.288;18.646;2023-02-15T06:14:32;101652.12;;;-2.23;90.33
74218;BME280;62579;47.288;18.646;2023-02-15T06:16:57;101654.91;;;-2.12;89.91
74218;BME280;62579;47.288;18.646;2023-02-15T06:19:22;101664.41;;;-2.18;90.79
74218;BME280;62579;47.288;18.646;2023-02-15T06:21:49;101659.91;;;-2.11;90.74
74218;BME280;62579;47.288;18.646;2023-02-15T06:24:14;101660.28;;;-2.09;90.69
74218;BME280;62579;47.288;18.646;2023-02-15T06:26:40;101672.22;;;-1.99;90.62
74218;BME280;62579;47.288;18.646;2023-02-15T06:29:06;101659.28;;;-1.97;90.66
74218;BME280;62579;47.288;18.646;2023-02-15T06:31:31;101658.13;;;-1.96;90.60
74218;BME280;62579;47.288;18.646;2023-02-15T06:33:57;101655.53;;;-1.89;90.57
74218;BME280;62579;47.288;18.646;2023-02-15T06:36:27;101660.53;;;-1.84;90.49
74218;BME280;62579;47.288;18.646;2023-02-15T06:38:54;101661.75;;;-1.78;90.30
74218;BME280;62579;47.288;18.646;2023-02-15T06:41:19;101658.25;;;-1.86;91.34
74218;BME280;62579;47.288;18.646;2023-02-15T06:43:45;101669.47;;;-1.69;91.35
74218;BME280;62579;47.288;18.646;2023-02-15T06:46:10;101667.56;;;-1.65;91.73
74218;BME280;62579;47.288;18.646;2023-02-15T06:48:35;101669.50;;;-1.62;92.27
74218;BME280;62579;47.288;18.646;2023-02-15T06:51:01;101666.53;;;-1.54;92.40
74218;BME280;62579;47.288;18.646;2023-02-15T06:53:26;101667.00;;;-1.41;92.15
74218;BME280;62579;47.288;18.646;2023-02-15T06:55:51;101674.72;;;-1.33;92.32
74218;BME280;62579;47.288;18.646;2023-02-15T06:58:17;101676.28;;;-1.25;91.86
74218;BME280;62579;47.288;18.646;2023-02-15T07:00:42;101671.00;;;-1.17;91.52
74218;BME280;62579;47.288;18.646;2023-02-15T07:03:08;101681.75;;;-1.10;91.91
74218;BME280;62579;47.288;18.646;2023-02-15T07:05:34;101682.91;;;-1.04;92.08
74218;BME280;62579;47.288;18.646;2023-02-15T07:08:00;101675.31;;;-0.99;92.88
74218;BME280;62579;47.288;18.646;2023-02-15T07:10:26;101677.25;;;-0.96;93.04
74218;BME280;62579;47.288;18.646;2023-02-15T07:12:52;101670.44;;;-0.86;92.93
74218;BME280;62579;47.288;18.646;2023-02-15T07:15:21;101677.00;;;-0.73;92.98
74218;BME280;62579;47.288;18.646;2023-02-15T07:17:47;101673.22;;;-0.65;93.55
74218;BME280;62579;47.288;18.646;2023-02-15T07:20:18;101670.59;;;-0.54;93.69
74218;BME280;62579;47.288;18.646;2023-02-15T07:22:44;101674.06;;;-0.40;93.91
74218;BME280;62579;47.288;18.646;2023-02-15T07:25:11;101680.63;;;-0.23;93.93
74218;BME280;62579;47.288;18.646;2023-02-15T07:27:37;101671.91;;;-0.06;94.03
74218;BME280;62579;47.288;18.646;2023-02-15T07:30:04;101670.41;;;0.11;94.13
74218;BME280;62579;47.288;18.646;2023-02-15T07:32:31;101666.59;;;0.26;94.08
74218;BME280;62579;47.288;18.646;2023-02-15T07:34:57;101662.00;;;0.44;93.43
74218;BME280;62579;47.288;18.646;2023-02-15T07:37:23;101668.53;;;0.53;92.93
74218;BME280;62579;47.288;18.646;2023-02-15T07:39:48;101665.44;;;0.62;92.61
74218;BME280;62579;47.288;18.646;2023-02-15T07:42:14;101662.75;;;0.83;91.88
74218;BME280;62579;47.288;18.646;2023-02-15T07:44:39;101658.50;;;1.03;90.93
74218;BME280;62579;47.288;18.646;2023-02-15T07:47:05;101659.28;;;1.07;91.09
74218;BME280;62579;47.288;18.646;2023-02-15T07:49:31;101652.34;;;1.17;90.65
74218;BME280;62579;47.288;18.646;2023-02-15T07:51:56;101660.34;;;1.31;90.20
74218;BME280;62579;47.288;18.646;2023-02-15T07:54:22;101656.13;;;1.37;90.25
74218;BME280;62579;47.288;18.646;2023-02-15T07:56:51;101649.56;;;1.45;90.00
74218;BME280;62579;47.288;18.646;2023-02-15T07:59:16;101661.34;;;1.65;89.87
74218;BME280;62579;47.288;18.646;2023-02-15T08:01:43;101653.66;;;1.74;89.58
74218;BME280;62579;47.288;18.646;2023-02-15T08:04:08;101652.06;;;1.80;89.39
74218;BME280;62579;47.288;18.646;2023-02-15T08:06:37;101655.81;;;1.97;88.94
74218;BME280;62579;47.288;18.646;2023-02-15T08:09:07;101645.38;;;2.10;88.44
74218;BME280;62579;47.288;18.646;2023-02-15T08:11:35;101648.81;;;2.10;88.12
74218;BME280;62579;47.288;18.646;2023-02-15T08:14:09;101647.59;;;2.22;87.48
74218;BME280;62579;47.288;18.646;2023-02-15T08:16:38;101651.75;;;2.30;86.93
74218;BME280;62579;47.288;18.646;2023-02-15T08:19:06;101644.00;;;2.39;86.86
74218;BME280;62579;47.288;18.646;2023-02-15T08:21:32;101645.06;;;2.52;87.09
74218;BME280;62579;47.288;18.646;2023-02-15T08:23:58;101645.06;;;2.52;86.90
74218;BME280;62579;47.288;18.646;2023-02-15T08:26:25;101645.53;;;2.40;87.42
74218;BME280;62579;47.288;18.646;2023-02-15T08:28:51;101650.78;;;2.58;86.85
74218;BME280;62579;47.288;18.646;2023-02-15T08:31:17;101648.00;;;2.68;86.42
74218;BME280;62579;47.288;18.646;2023-02-15T08:33:44;101640.63;;;2.76;86.08
74218;BME280;62579;47.288;18.646;2023-02-15T08:36:12;101645.97;;;2.79;85.94
74218;BME280;62579;47.288;18.646;2023-02-15T08:38:39;101640.19;;;2.77;86.04
74218;BME280;62579;47.288;18.646;2023-02-15T08:41:20;101627.81;;;2.90;86.25
74218;BME280;62579;47.288;18.646;2023-02-15T08:43:47;101628.44;;;3.01;85.58
74218;BME280;62579;47.288;18.646;2023-02-15T08:46:15;101638.78;;;3.07;85.44
74218;BME280;62579;47.288;18.646;2023-02-15T08:48:41;101629.69;;;3.27;84.11
74218;BME280;62579;47.288;18.646;2023-02-15T08:51:09;101636.19;;;3.30;84.35
74218;BME280;62579;47.288;18.646;2023-02-15T08:53:37;101636.03;;;3.44;83.64
74218;BME280;62579;47.288;18.646;2023-02-15T08:56:02;101632.28;;;3.34;83.36
74218;BME280;62579;47.288;18.646;2023-02-15T08:58:29;101632.53;;;3.47;83.61
74218;BME280;62579;47.288;18.646;2023-02-15T09:00:55;101632.41;;;3.57;83.65
74218;BME280;62579;47.288;18.646;2023-02-15T09:03:21;101629.56;;;3.68;83.78
74218;BME280;62579;47.288;18.646;2023-02-15T09:05:46;101629.41;;;3.79;83.35
74218;BME280;62579;47.288;18.646;2023-02-15T09:08:11;101633.28;;;3.78;82.99
74218;BME280;62579;47.288;18.646;2023-02-15T09:10:37;101626.34;;;3.77;82.79
74218;BME280;62579;47.288;18.646;2023-02-15T09:13:02;101626.63;;;3.86;82.50
74218;BME280;62579;47.288;18.646;2023-02-15T09:15:28;101627.22;;;3.97;82.22
74218;BME280;62579;47.288;18.646;2023-02-15T09:17:53;101626.66;;;4.09;81.37
74218;BME280;62579;47.288;18.646;2023-02-15T09:20:18;101625.44;;;4.13;81.47
74218;BME280;62579;47.288;18.646;2023-02-15T09:22:44;101633.91;;;4.12;81.29
74218;BME280;62579;47.288;18.646;2023-02-15T09:25:09;101631.19;;;4.15;80.69
74218;BME280;62579;47.288;18.646;2023-02-15T09:27:35;101634.88;;;4.25;80.56
74218;BME280;62579;47.288;18.646;2023-02-15T09:30:03;101637.28;;;4.19;80.33
74218;BME280;62579;47.288;18.646;2023-02-15T09:32:28;101637.37;;;4.12;80.17
74218;BME280;62579;47.288;18.646;2023-02-15T09:34:54;101635.53;;;4.33;80.21
74218;BME280;62579;47.288;18.646;2023-02-15T09:37:19;101633.31;;;4.28;79.17
74218;BME280;62579;47.288;18.646;2023-02-15T09:39:45;101631.19;;;4.39;78.54
74218;BME280;62579;47.288;18.646;2023-02-15T09:45:31;101623.97;;;4.55;78.57
74218;BME280;62579;47.288;18.646;2023-02-15T09:51:07;101618.69;;;4.71;78.41
74218;BME280;62579;47.288;18.646;2023-02-15T09:56:19;101619.50;;;4.92;77.52
74218;BME280;62579;47.288;18.646;2023-02-15T10:16:19;101604.25;;;5.21;78.54
74218;BME280;62579;47.288;18.646;2023-02-15T10:18:47;101601.56;;;5.40;78.25
74218;BME280;62579;47.288;18.646;2023-02-15T10:27:23;101595.34;;;5.60;77.93
74218;BME280;62579;47.288;18.646;2023-02-15T10:33:00;101581.75;;;6.60;77.89
74218;BME280;62579;47.288;18.646;2023-02-15T10:35:41;101584.94;;;6.42;73.98
74218;BME280;62579;47.288;18.646;2023-02-15T10:38:24;101583.69;;;6.59;73.54
74218;BME280;62579;47.288;18.646;2023-02-15T10:44:31;101579.09;;;6.73;71.49
74218;BME280;62579;47.288;18.646;2023-02-15T10:53:13;101571.63;;;6.64;71.11
74218;BME280;62579;47.288;18.646;2023-02-15T10:55:50;101569.03;;;6.73;70.66
74218;BME280;62579;47.288;18.646;2023-02-15T10:58:29;101573.34;;;6.71;70.82
74218;BME280;62579;47.288;18.646;2023-02-15T11:33:53;101524.25;;;7.26;68.03
74218;BME280;62579;47.288;18.646;2023-02-15T11:36:24;101522.63;;;7.29;68.91
74218;BME280;62579;47.288;18.646;2023-02-15T11:38:57;101507.13;;;7.42;68.63
74218;BME280;62579;47.288;18.646;2023-02-15T11:41:28;101501.81;;;7.38;68.13
74218;BME280;62579;47.288;18.646;2023-02-15T11:44:00;101504.37;;;7.67;67.05
74218;BME280;62579;47.288;18.646;2023-02-15T11:46:29;101500.72;;;7.61;67.66
74218;BME280;62579;47.288;18.646;2023-02-15T11:48:55;101500.03;;;7.82;67.27
74218;BME280;62579;47.288;18.646;2023-02-15T11:51:22;101492.84;;;7.88;66.45
74218;BME280;62579;47.288;18.646;2023-02-15T11:53:48;101494.81;;;7.87;66.50
74218;BME280;62579;47.288;18.646;2023-02-15T11:56:20;101490.13;;;7.88;66.58
74218;BME280;62579;47.288;18.646;2023-02-15T11:58:57;101492.53;;;7.99;65.23
74218;BME280;62579;47.288;18.646;2023-02-15T12:01:43;101490.09;;;8.13;64.33
74218;BME280;62579;47.288;18.646;2023-02-15T12:04:22;101480.63;;;8.18;64.59
74218;BME280;62579;47.288;18.646;2023-02-15T12:06:54;101481.75;;;8.08;64.51
74218;BME280;62579;47.288;18.646;2023-02-15T12:09:35;101471.00;;;8.04;65.44
74218;BME280;62579;47.288;18.646;2023-02-15T12:12:22;101476.06;;;8.27;64.32
74218;BME280;62579;47.288;18.646;2023-02-15T12:14:50;101468.50;;;8.44;64.02
74218;BME280;62579;47.288;18.646;2023-02-15T12:17:17;101469.25;;;8.44;64.00
74218;BME280;62579;47.288;18.646;2023-02-15T12:19:43;101460.69;;;8.46;64.78
74218;BME280;62579;47.288;18.646;2023-02-15T12:22:20;101461.69;;;8.39;64.82
74218;BME280;62579;47.288;18.646;2023-02-15T12:24:47;101455.69;;;8.44;64.11
74218;BME280;62579;47.288;18.646;2023-02-15T12:27:22;101456.31;;;8.49;64.21
74218;BME280;62579;47.288;18.646;2023-02-15T12:29:52;101454.00;;;8.38;64.47
74218;BME280;62579;47.288;18.646;2023-02-15T12:32:27;101455.44;;;8.52;64.36
74218;BME280;62579;47.288;18.646;2023-02-15T12:35:30;101449.94;;;8.42;64.38
74218;BME280;62579;47.288;18.646;2023-02-15T12:38:02;101458.47;;;8.32;65.29
74218;BME280;62579;47.288;18.646;2023-02-15T12:40:29;101449.44;;;8.35;65.00
74218;BME280;62579;47.288;18.646;2023-02-15T12:42:55;101449.91;;;8.33;64.55
74218;BME280;62579;47.288;18.646;2023-02-15T12:45:30;101449.03;;;8.24;65.18
74218;BME280;62579;47.288;18.646;2023-02-15T12:50:41;101436.16;;;8.50;64.22
74218;BME280;62579;47.288;18.646;2023-02-15T12:53:14;101433.16;;;8.57;63.60
74218;BME280;62579;47.288;18.646;2023-02-15T12:55:53;101431.06;;;8.61;63.59
74218;BME280;62579;47.288;18.646;2023-02-15T12:58:22;101430.37;;;8.48;63.35
74218;BME280;62579;47.288;18.646;2023-02-15T13:03:35;101424.91;;;8.60;63.62
74218;BME280;62579;47.288;18.646;2023-02-15T13:06:01;101418.47;;;8.45;64.51
74218;BME280;62579;47.288;18.646;2023-02-15T13:08:33;101417.88;;;8.50;63.60
74218;BME280;62579;47.288;18.646;2023-02-15T13:11:09;101414.22;;;8.66;63.75
74218;BME280;62579;47.288;18.646;2023-02-15T13:13:58;101413.78;;;8.67;62.83
74218;BME280;62579;47.288;18.646;2023-02-15T13:16:38;101406.56;;;8.73;61.76
74218;BME280;62579;47.288;18.646;2023-02-15T13:19:34;101410.25;;;8.88;62.00
74218;BME280;62579;47.288;18.646;2023-02-15T13:22:06;101400.97;;;8.68;62.23
74218;BME280;62579;47.288;18.646;2023-02-15T13:24:36;101405.34;;;8.74;62.58
74218;BME280;62579;47.288;18.646;2023-02-15T13:27:03;101406.03;;;8.57;62.75
74218;BME280;62579;47.288;18.646;2023-02-15T13:29:31;101395.84;;;8.70;62.68
74218;BME280;62579;47.288;18.646;2023-02-15T13:42:49;101402.84;;;8.58;62.95
74218;BME280;62579;47.288;18.646;2023-02-15T13:45:32;101402.50;;;8.78;61.83
74218;BME280;62579;47.288;18.646;2023-02-15T13:48:20;101399.25;;;8.92;61.53
74218;BME280;62579;47.288;18.646;2023-02-15T13:51:21;101399.13;;;8.65;62.13
74218;BME280;62579;47.288;18.646;2023-02-15T13:54:09;101396.19;;;8.81;61.65
74218;BME280;62579;47.288;18.646;2023-02-15T13:59:57;101389.97;;;8.71;62.65
74218;BME280;62579;47.288;18.646;2023-02-15T14:08:15;101386.44;;;8.92;61.61
74218;BME280;62579;47.288;18.646;2023-02-15T14:10:56;101389.78;;;8.96;61.58
74218;BME280;62579;47.288;18.646;2023-02-15T14:16:11;101389.87;;;8.84;61.19
74218;BME280;62579;47.288;18.646;2023-02-15T14:18:48;101388.66;;;8.85;61.78
74218;BME280;62579;47.288;18.646;2023-02-15T14:21:19;101382.44;;;8.75;62.56
74218;BME280;62579;47.288;18.646;2023-02-15T14:29:46;101374.41;;;8.63;62.65
74218;BME280;62579;47.288;18.646;2023-02-15T14:32:40;101371.31;;;8.82;62.12
74218;BME280;62579;47.288;18.646;2023-02-15T14:35:27;101370.88;;;8.84;61.82
74218;BME280;62579;47.288;18.646;2023-02-15T14:40:38;101366.47;;;8.77;62.24
74218;BME280;62579;47.288;18.646;2023-02-15T14:48:33;101368.75;;;8.79;62.73
74218;BME280;62579;47.288;18.646;2023-02-15T14:51:03;101363.00;;;8.77;62.49
74218;BME280;62579;47.288;18.646;2023-02-15T15:01:14;101356.22;;;8.41;63.69
74218;BME280;62579;47.288;18.646;2023-02-15T15:03:51;101365.59;;;8.50;63.70
74218;BME280;62579;47.288;18.646;2023-02-15T15:06:31;101368.94;;;8.54;63.51
74218;BME280;62579;47.288;18.646;2023-02-15T15:14:48;101352.75;;;8.41;63.97
74218;BME280;62579;47.288;18.646;2023-02-15T15:20:03;101361.25;;;8.52;63.39
74218;BME280;62579;47.288;18.646;2023-02-15T15:22:33;101359.41;;;8.49;63.63
74218;BME280;62579;47.288;18.646;2023-02-15T15:25:00;101364.22;;;8.45;63.82
74218;BME280;62579;47.288;18.646;2023-02-15T15:27:47;101365.81;;;8.33;64.35
74218;BME280;62579;47.288;18.646;2023-02-15T15:49:21;101348.56;;;7.84;66.89
74218;BME280;62579;47.288;18.646;2023-02-15T15:51:49;101347.75;;;7.74;68.26
74218;BME280;62579;47.288;18.646;2023-02-15T15:54:18;101339.63;;;7.74;68.01
74218;BME280;62579;47.288;18.646;2023-02-15T15:57:12;101347.44;;;7.72;68.72
74218;BME280;62579;47.288;18.646;2023-02-15T15:59:33;101341.06;;;7.66;68.19
74218;BME280;62579;47.288;18.646;2023-02-15T16:02:12;101341.19;;;7.63;67.83
74218;BME280;62579;47.288;18.646;2023-02-15T16:04:38;101336.34;;;7.58;68.43
74218;BME280;62579;47.288;18.646;2023-02-15T16:09:53;101344.06;;;7.47;68.88
74218;BME280;62579;47.288;18.646;2023-02-15T16:12:19;101340.69;;;7.43;69.53
74218;BME280;62579;47.288;18.646;2023-02-15T16:14:45;101339.75;;;7.37;69.47
74218;BME280;62579;47.288;18.646;2023-02-15T16:17:27;101343.00;;;7.32;69.54
74218;BME280;62579;47.288;18.646;2023-02-15T16:20:13;101342.16;;;7.22;69.78
74218;BME280;62579;47.288;18.646;2023-02-15T16:22:40;101341.19;;;7.16;69.67
74218;BME280;62579;47.288;18.646;2023-02-15T16:27:38;101337.22;;;6.95;68.94
74218;BME280;62579;47.288;18.646;2023-02-15T16:32:45;101342.75;;;6.67;70.03
74218;BME280;62579;47.288;18.646;2023-02-15T16:35:16;101345.03;;;6.55;69.92
74218;BME280;62579;47.288;18.646;2023-02-15T16:37:43;101345.87;;;6.40;70.20
74218;BME280;62579;47.288;18.646;2023-02-15T16:43:02;101348.25;;;5.96;71.77
74218;BME280;62579;47.288;18.646;2023-02-15T16:45:29;101341.94;;;5.87;71.87
74218;BME280;62579;47.288;18.646;2023-02-15T16:47:59;101344.16;;;5.76;72.03
74218;BME280;62579;47.288;18.646;2023-02-15T16:50:31;101343.56;;;5.68;72.01
74218;BME280;62579;47.288;18.646;2023-02-15T16:52:58;101345.06;;;5.57;72.31
74218;BME280;62579;47.288;18.646;2023-02-15T16:55:26;101349.72;;;5.40;72.75